Terminal Aerodrome Forecast
Issued by NWS Wilmington, OH

Current Version | Previous Version | Graphics & Text | Print | Product List | Glossary On
Versions: 1 2 3 4 5 6 7 8 9 10 11 12 13 14 15 16 17 18 19 20 21 22 23 24 25 26
000
FTUS41 KILN 301700
TAFDAY
TAF
KDAY 301737Z 3018/0118 33006KT 5SM BR VCSH OVC006
     FM302000 35006KT P6SM OVC007
     FM010200 02005KT P6SM BKN008
     FM010300 02003KT 3SM BR OVC007
      TEMPO 0108/0112 3/4SM BR OVC003
     FM011500 06003KT P6SM BKN012=

USA.gov is the U.S. government's official web portal to all federal, state and local government web resources and services.